Main page
METAR-TAF:

METAR-TAF

Airports :

Edinburgh Airport

Edinburgh, Scotland

latitude: 55-57N, longitude: 003-21W, elevation: 41 m

Current weather observation

The report was made 33 minutes ago, at 22:50 UTC
Wind 2 kt from the North/Northeast
Temperature 6°C
Humidity 100%
Pressure 1037 hPa
Visibility 10 km or more
Broken clouds at a height of 2600 ft

METAR: EGPH 302250Z 03002KT 9999 BKN026 06/06 Q1037

Time: 00:23 (23:23 UTC)

Forecast

The report was made 6 hours and 26 minutes ago, at 16:57 UTC
Forecast valid from 30 at 18 UTC to 31 at 18 UTC
Wind 5 kt from the North/Northeast
Visibility 10 km or more
Scattered clouds at a height of 4500 ft
Probability 30% :
Temporary
from 30 at 18 UTC to 31 at 03 UTC
Visibility: 6000 m
Broken clouds at a height of 1400 ft
rain showers

TAF: EGPH 301657Z 3018/3118 02005KT 9999 SCT045 PROB30 TEMPO 3018/3103 6000 SHRA BKN014

Weather observations and forecasts of more than 4000 airports (METAR and TAF reports).

The available stations are represented by yellow and red dots on the map.

Hover mouse over dot to see the name of the station.

Then click to see weather observations and forecasts.

To change the map : click on the green buttons with a black cross to zoom in, on the green button with a dash to zoom out, or on the green arrows for adjacent maps.


METAR-TAF: